sensor_id;sensor_type;location;lat;lon;timestamp;pressure;altitude;pressure_sealevel;temperature;humidity
35649;BME280;21768;48.562;13.414;2023-02-01T00:01:30;97688.66;;;5.56;65.91
35649;BME280;21768;48.562;13.414;2023-02-01T00:03:55;97672.16;;;5.58;65.72
35649;BME280;21768;48.562;13.414;2023-02-01T00:06:20;97681.56;;;5.60;65.46
35649;BME280;21768;48.562;13.414;2023-02-01T00:08:46;97675.34;;;5.65;65.59
35649;BME280;21768;48.562;13.414;2023-02-01T00:11:12;97673.13;;;5.68;65.87
35649;BME280;21768;48.562;13.414;2023-02-01T00:13:40;97674.75;;;5.68;65.26
35649;BME280;21768;48.562;13.414;2023-02-01T00:16:08;97677.84;;;5.65;65.53
35649;BME280;21768;48.562;13.414;2023-02-01T00:18:34;97681.38;;;5.67;65.86
35649;BME280;21768;48.562;13.414;2023-02-01T00:21:00;97678.59;;;5.64;65.65
35649;BME280;21768;48.562;13.414;2023-02-01T00:23:25;97677.84;;;5.65;65.48
35649;BME280;21768;48.562;13.414;2023-02-01T00:25:51;97682.13;;;5.66;65.46
35649;BME280;21768;48.562;13.414;2023-02-01T00:28:16;97670.63;;;5.68;65.41
35649;BME280;21768;48.562;13.414;2023-02-01T00:30:42;97664.09;;;5.70;65.54
35649;BME280;21768;48.562;13.414;2023-02-01T00:33:07;97669.22;;;5.72;65.60
35649;BME280;21768;48.562;13.414;2023-02-01T00:35:36;97657.09;;;5.66;65.35
35649;BME280;21768;48.562;13.414;2023-02-01T00:38:01;97652.06;;;5.66;65.33
35649;BME280;21768;48.562;13.414;2023-02-01T00:40:27;97657.09;;;5.66;65.52
35649;BME280;21768;48.562;13.414;2023-02-01T00:42:52;97649.72;;;5.68;65.43
35649;BME280;21768;48.562;13.414;2023-02-01T00:45:18;97647.06;;;5.66;65.66
35649;BME280;21768;48.562;13.414;2023-02-01T00:47:43;97651.34;;;5.67;65.41
35649;BME280;21768;48.562;13.414;2023-02-01T00:50:09;97646.81;;;5.63;65.44
35649;BME280;21768;48.562;13.414;2023-02-01T00:52:35;97659.03;;;5.60;65.51
35649;BME280;21768;48.562;13.414;2023-02-01T00:55:00;97671.81;;;5.63;65.49
35649;BME280;21768;48.562;13.414;2023-02-01T00:57:26;97660.06;;;5.62;65.79
35649;BME280;21768;48.562;13.414;2023-02-01T00:59:51;97660.06;;;5.62;65.87
35649;BME280;21768;48.562;13.414;2023-02-01T01:02:16;97670.34;;;5.65;65.83
35649;BME280;21768;48.562;13.414;2023-02-01T01:04:42;97653.44;;;5.63;65.58
35649;BME280;21768;48.562;13.414;2023-02-01T01:07:07;97657.56;;;5.62;65.68
35649;BME280;21768;48.562;13.414;2023-02-01T01:09:32;97657.09;;;5.66;65.46
35649;BME280;21768;48.562;13.414;2023-02-01T01:11:58;97661.59;;;5.70;65.70
35649;BME280;21768;48.562;13.414;2023-02-01T01:14:30;97659.34;;;5.73;65.67
35649;BME280;21768;48.562;13.414;2023-02-01T01:16:55;97653.59;;;5.74;65.57
35649;BME280;21768;48.562;13.414;2023-02-01T01:19:21;97655.34;;;5.75;65.66
35649;BME280;21768;48.562;13.414;2023-02-01T01:21:46;97668.88;;;5.77;65.75
35649;BME280;21768;48.562;13.414;2023-02-01T01:24:12;97655.50;;;5.77;65.50
35649;BME280;21768;48.562;13.414;2023-02-01T01:26:37;97658.59;;;5.74;65.61
35649;BME280;21768;48.562;13.414;2023-02-01T01:29:03;97663.13;;;5.78;65.57
35649;BME280;21768;48.562;13.414;2023-02-01T01:31:29;97658.13;;;5.78;65.55
35649;BME280;21768;48.562;13.414;2023-02-01T01:33:56;97652.09;;;5.76;65.25
35649;BME280;21768;48.562;13.414;2023-02-01T01:36:23;97644.59;;;5.76;65.34
35649;BME280;21768;48.562;13.414;2023-02-01T01:38:49;97645.75;;;5.80;65.25
35649;BME280;21768;48.562;13.414;2023-02-01T01:41:18;97645.88;;;5.81;65.30
35649;BME280;21768;48.562;13.414;2023-02-01T01:44:55;97645.75;;;5.80;65.24
35649;BME280;21768;48.562;13.414;2023-02-01T01:46:52;97648.38;;;5.81;64.79
35649;BME280;21768;48.562;13.414;2023-02-01T01:49:22;97644.59;;;5.76;65.21
35649;BME280;21768;48.562;13.414;2023-02-01T01:51:59;97651.22;;;5.76;65.36
35649;BME280;21768;48.562;13.414;2023-02-01T01:54:36;97648.88;;;5.77;65.42
35649;BME280;21768;48.562;13.414;2023-02-01T01:57:06;97655.03;;;5.81;65.32
35649;BME280;21768;48.562;13.414;2023-02-01T01:59:35;97658.88;;;5.77;65.48
35649;BME280;21768;48.562;13.414;2023-02-01T02:02:03;97647.84;;;5.75;65.62
35649;BME280;21768;48.562;13.414;2023-02-01T02:04:29;97646.09;;;5.74;65.65
35649;BME280;21768;48.562;13.414;2023-02-01T02:06:59;97636.81;;;5.73;65.75
35649;BME280;21768;48.562;13.414;2023-02-01T02:09:26;97632.56;;;5.72;65.80
35649;BME280;21768;48.562;13.414;2023-02-01T02:11:52;97628.31;;;5.71;65.86
35649;BME280;21768;48.562;13.414;2023-02-01T02:14:19;97629.19;;;5.72;65.77
35649;BME280;21768;48.562;13.414;2023-02-01T02:36:01;97623.94;;;5.69;66.16
35649;BME280;21768;48.562;13.414;2023-02-01T02:41:42;97628.31;;;5.71;66.07
35649;BME280;21768;48.562;13.414;2023-02-01T02:52:46;97604.56;;;5.76;65.74
35649;BME280;21768;48.562;13.414;2023-02-01T02:55:33;97609.81;;;5.79;65.74
35649;BME280;21768;48.562;13.414;2023-02-01T02:58:02;97618.34;;;5.81;65.72
35649;BME280;21768;48.562;13.414;2023-02-01T03:00:47;97607.72;;;5.84;65.61
35649;BME280;21768;48.562;13.414;2023-02-01T03:03:36;97613.34;;;5.81;65.58
35649;BME280;21768;48.562;13.414;2023-02-01T03:06:22;97612.19;;;5.78;65.45
35649;BME280;21768;48.562;13.414;2023-02-01T03:08:48;97611.31;;;5.77;65.57
35649;BME280;21768;48.562;13.414;2023-02-01T03:11:14;97608.94;;;5.79;65.48
35649;BME280;21768;48.562;13.414;2023-02-01T03:16:28;97598.31;;;5.81;65.27
35649;BME280;21768;48.562;13.414;2023-02-01T03:19:03;97595.81;;;5.81;65.27
35649;BME280;21768;48.562;13.414;2023-02-01T03:21:59;97591.06;;;5.85;65.49
35649;BME280;21768;48.562;13.414;2023-02-01T03:24:25;97590.34;;;5.86;65.39
35649;BME280;21768;48.562;13.414;2023-02-01T03:27:03;97590.34;;;5.86;65.47
35649;BME280;21768;48.562;13.414;2023-02-01T03:29:37;97587.81;;;5.86;65.36
35649;BME280;21768;48.562;13.414;2023-02-01T03:32:03;97591.97;;;5.85;65.26
35649;BME280;21768;48.562;13.414;2023-02-01T03:34:29;97583.56;;;5.85;65.34
35649;BME280;21768;48.562;13.414;2023-02-01T03:37:01;97584.31;;;5.84;65.30
35649;BME280;21768;48.562;13.414;2023-02-01T03:41:59;97574.44;;;5.85;65.55
35649;BME280;21768;48.562;13.414;2023-02-01T03:44:39;97584.56;;;5.87;65.56
35649;BME280;21768;48.562;13.414;2023-02-01T03:47:08;97577.50;;;5.91;65.54
35649;BME280;21768;48.562;13.414;2023-02-01T03:49:47;97576.50;;;5.89;65.59
35649;BME280;21768;48.562;13.414;2023-02-01T03:52:22;97581.50;;;5.89;65.33
35649;BME280;21768;48.562;13.414;2023-02-01T03:54:49;97575.75;;;5.90;65.36
35649;BME280;21768;48.562;13.414;2023-02-01T03:57:21;97577.06;;;5.87;65.29
35649;BME280;21768;48.562;13.414;2023-02-01T03:59:49;97581.50;;;5.89;65.48
35649;BME280;21768;48.562;13.414;2023-02-01T04:02:14;97585.88;;;5.92;65.44
35649;BME280;21768;48.562;13.414;2023-02-01T04:04:40;97580.88;;;5.92;65.38
35649;BME280;21768;48.562;13.414;2023-02-01T04:07:05;97566.59;;;5.91;65.46
35649;BME280;21768;48.562;13.414;2023-02-01T04:09:31;97563.22;;;5.90;65.58
35649;BME280;21768;48.562;13.414;2023-02-01T04:11:56;97561.72;;;5.92;65.61
35649;BME280;21768;48.562;13.414;2023-02-01T04:14:21;97563.34;;;5.92;65.45
35649;BME280;21768;48.562;13.414;2023-02-01T04:16:47;97556.84;;;5.94;65.68
35649;BME280;21768;48.562;13.414;2023-02-01T04:19:12;97556.06;;;5.95;65.63
35649;BME280;21768;48.562;13.414;2023-02-01T04:21:38;97543.69;;;5.96;65.50
35649;BME280;21768;48.562;13.414;2023-02-01T04:24:03;97545.56;;;5.99;65.59
35649;BME280;21768;48.562;13.414;2023-02-01T04:26:29;97547.34;;;6.00;65.67
35649;BME280;21768;48.562;13.414;2023-02-01T04:28:54;97544.81;;;6.00;65.85
35649;BME280;21768;48.562;13.414;2023-02-01T04:31:20;97536.03;;;5.95;66.00
35649;BME280;21768;48.562;13.414;2023-02-01T04:33:53;97535.28;;;5.96;66.11
35649;BME280;21768;48.562;13.414;2023-02-01T04:36:19;97536.03;;;5.95;66.04
35649;BME280;21768;48.562;13.414;2023-02-01T04:38:51;97530.28;;;5.96;66.09
35649;BME280;21768;48.562;13.414;2023-02-01T04:41:18;97531.56;;;5.91;66.14
35649;BME280;21768;48.562;13.414;2023-02-01T04:43:47;97530.38;;;5.87;66.23
35649;BME280;21768;48.562;13.414;2023-02-01T04:46:13;97527.00;;;5.87;66.15
35649;BME280;21768;48.562;13.414;2023-02-01T04:48:38;97534.81;;;5.90;65.98
35649;BME280;21768;48.562;13.414;2023-02-01T04:51:03;97529.19;;;5.92;66.03
35649;BME280;21768;48.562;13.414;2023-02-01T04:53:29;97536.03;;;5.95;66.18
35649;BME280;21768;48.562;13.414;2023-02-01T04:55:55;97532.78;;;5.96;65.83
35649;BME280;21768;48.562;13.414;2023-02-01T04:58:20;97528.66;;;5.96;65.87
35649;BME280;21768;48.562;13.414;2023-02-01T05:00:46;97537.94;;;5.97;65.90
35649;BME280;21768;48.562;13.414;2023-02-01T05:03:11;97529.41;;;5.95;66.00
35649;BME280;21768;48.562;13.414;2023-02-01T05:05:36;97533.94;;;5.89;65.97
35649;BME280;21768;48.562;13.414;2023-02-01T05:08:02;97533.75;;;5.88;65.86
35649;BME280;21768;48.562;13.414;2023-02-01T05:10:27;97527.75;;;5.86;65.84
35649;BME280;21768;48.562;13.414;2023-02-01T05:12:56;97543.50;;;5.85;65.71
35649;BME280;21768;48.562;13.414;2023-02-01T05:15:40;97538.50;;;5.85;65.91
35649;BME280;21768;48.562;13.414;2023-02-01T05:18:05;97552.78;;;5.86;66.10
35649;BME280;21768;48.562;13.414;2023-02-01T05:20:31;97541.84;;;5.75;65.88
35649;BME280;21768;48.562;13.414;2023-02-01T05:22:56;97536.47;;;5.80;65.98
35649;BME280;21768;48.562;13.414;2023-02-01T05:25:22;97534.13;;;5.82;66.01
35649;BME280;21768;48.562;13.414;2023-02-01T05:27:47;97542.38;;;5.81;66.21
35649;BME280;21768;48.562;13.414;2023-02-01T05:30:13;97544.13;;;5.82;66.18
35649;BME280;21768;48.562;13.414;2023-02-01T05:32:38;97539.00;;;5.80;66.25
35649;BME280;21768;48.562;13.414;2023-02-01T05:35:04;97544.59;;;5.78;66.25
35649;BME280;21768;48.562;13.414;2023-02-01T05:37:29;97535.97;;;5.74;66.00
35649;BME280;21768;48.562;13.414;2023-02-01T05:39:55;97525.94;;;5.74;66.21
35649;BME280;21768;48.562;13.414;2023-02-01T05:42:20;97538.59;;;5.76;66.20
35649;BME280;21768;48.562;13.414;2023-02-01T05:44:46;97540.22;;;5.75;66.13
35649;BME280;21768;48.562;13.414;2023-02-01T05:47:11;97536.22;;;5.77;66.12
35649;BME280;21768;48.562;13.414;2023-02-01T05:49:37;97523.84;;;5.79;66.21
35649;BME280;21768;48.562;13.414;2023-02-01T05:52:03;97527.97;;;5.78;66.06
35649;BME280;21768;48.562;13.414;2023-02-01T05:54:28;97524.59;;;5.78;66.12
35649;BME280;21768;48.562;13.414;2023-02-01T05:56:54;97525.19;;;5.75;66.06
35649;BME280;21768;48.562;13.414;2023-02-01T05:59:20;97515.06;;;5.74;66.18
35649;BME280;21768;48.562;13.414;2023-02-01T06:01:45;97531.09;;;5.76;66.25
35649;BME280;21768;48.562;13.414;2023-02-01T06:04:11;97531.22;;;5.77;66.27
35649;BME280;21768;48.562;13.414;2023-02-01T06:06:36;97523.56;;;5.76;66.31
35649;BME280;21768;48.562;13.414;2023-02-01T06:09:04;97529.47;;;5.76;66.28
35649;BME280;21768;48.562;13.414;2023-02-01T06:11:30;97531.09;;;5.76;66.20
35649;BME280;21768;48.562;13.414;2023-02-01T06:13:55;97535.34;;;5.77;66.13
35649;BME280;21768;48.562;13.414;2023-02-01T06:16:22;97531.09;;;5.76;66.12
35649;BME280;21768;48.562;13.414;2023-02-01T06:18:48;97529.72;;;5.79;65.89
35649;BME280;21768;48.562;13.414;2023-02-01T06:21:13;97521.94;;;5.76;65.84
35649;BME280;21768;48.562;13.414;2023-02-01T06:23:40;97519.06;;;5.72;66.00
35649;BME280;21768;48.562;13.414;2023-02-01T06:26:07;97521.41;;;5.70;66.04
35649;BME280;21768;48.562;13.414;2023-02-01T06:28:35;97516.31;;;5.69;65.93
35649;BME280;21768;48.562;13.414;2023-02-01T06:31:04;97512.06;;;5.68;65.86
35649;BME280;21768;48.562;13.414;2023-02-01T06:33:32;97512.66;;;5.65;65.99
35649;BME280;21768;48.562;13.414;2023-02-01T06:36:00;97505.44;;;5.68;65.97
35649;BME280;21768;48.562;13.414;2023-02-01T06:38:26;97508.91;;;5.70;65.94
35649;BME280;21768;48.562;13.414;2023-02-01T06:40:53;97507.41;;;5.72;66.00
35649;BME280;21768;48.562;13.414;2023-02-01T06:43:19;97511.41;;;5.70;65.74
35649;BME280;21768;48.562;13.414;2023-02-01T06:45:44;97514.19;;;5.73;65.73
35649;BME280;21768;48.562;13.414;2023-02-01T06:48:10;97507.41;;;5.72;65.87
35649;BME280;21768;48.562;13.414;2023-02-01T06:50:35;97514.66;;;5.69;65.85
35649;BME280;21768;48.562;13.414;2023-02-01T06:53:01;97517.16;;;5.69;65.89
35649;BME280;21768;48.562;13.414;2023-02-01T06:55:26;97515.66;;;5.71;65.70
35649;BME280;21768;48.562;13.414;2023-02-01T06:57:55;97516.69;;;5.73;65.93
35649;BME280;21768;48.562;13.414;2023-02-01T07:00:22;97511.19;;;5.77;65.90
35649;BME280;21768;48.562;13.414;2023-02-01T07:02:47;97506.19;;;5.77;65.57
35649;BME280;21768;48.562;13.414;2023-02-01T07:05:13;97506.94;;;5.76;65.50
35649;BME280;21768;48.562;13.414;2023-02-01T07:07:38;97511.81;;;5.75;65.31
35649;BME280;21768;48.562;13.414;2023-02-01T07:10:04;97503.69;;;5.77;65.58
35649;BME280;21768;48.562;13.414;2023-02-01T07:12:29;97512.34;;;5.81;65.79
35649;BME280;21768;48.562;13.414;2023-02-01T07:14:55;97505.84;;;5.83;65.53
35649;BME280;21768;48.562;13.414;2023-02-01T07:17:22;97510.22;;;5.86;65.62
35649;BME280;21768;48.562;13.414;2023-02-01T07:19:47;97506.72;;;5.84;65.57
35649;BME280;21768;48.562;13.414;2023-02-01T07:22:16;97498.19;;;5.81;65.98
35649;BME280;21768;48.562;13.414;2023-02-01T07:24:41;97497.19;;;5.79;65.86
35649;BME280;21768;48.562;13.414;2023-02-01T07:27:07;97498.06;;;5.80;66.10
35649;BME280;21768;48.562;13.414;2023-02-01T07:29:32;97492.66;;;5.75;66.44
35649;BME280;21768;48.562;13.414;2023-02-01T07:31:57;97476.63;;;5.63;67.14
35649;BME280;21768;48.562;13.414;2023-02-01T07:34:23;97477.84;;;5.58;67.66
35649;BME280;21768;48.562;13.414;2023-02-01T07:36:48;97477.59;;;5.55;67.88
35649;BME280;21768;48.562;13.414;2023-02-01T07:39:14;97473.19;;;5.53;68.21
35649;BME280;21768;48.562;13.414;2023-02-01T07:41:39;97455.56;;;5.51;68.29
35649;BME280;21768;48.562;13.414;2023-02-01T07:44:04;97459.69;;;5.51;68.53
35649;BME280;21768;48.562;13.414;2023-02-01T07:46:30;97450.81;;;5.54;68.46
35649;BME280;21768;48.562;13.414;2023-02-01T07:48:55;97439.56;;;5.59;68.46
35649;BME280;21768;48.562;13.414;2023-02-01T07:51:21;97448.09;;;5.61;68.43
35649;BME280;21768;48.562;13.414;2023-02-01T07:53:46;97452.22;;;5.61;68.52
35649;BME280;21768;48.562;13.414;2023-02-01T07:56:17;97448.63;;;5.67;68.34
35649;BME280;21768;48.562;13.414;2023-02-01T07:58:42;97453.63;;;5.67;68.23
35649;BME280;21768;48.562;13.414;2023-02-01T08:01:14;97447.34;;;5.72;68.02
35649;BME280;21768;48.562;13.414;2023-02-01T08:03:51;97446.72;;;5.75;67.79
35649;BME280;21768;48.562;13.414;2023-02-01T08:06:18;97452.00;;;5.78;67.23
35649;BME280;21768;48.562;13.414;2023-02-01T08:08:45;97447.88;;;5.78;67.04
35649;BME280;21768;48.562;13.414;2023-02-01T08:11:12;97444.88;;;5.82;66.93
35649;BME280;21768;48.562;13.414;2023-02-01T08:13:38;97466.66;;;5.84;67.04
35649;BME280;21768;48.562;13.414;2023-02-01T08:16:06;97464.41;;;5.87;66.34
35649;BME280;21768;48.562;13.414;2023-02-01T08:18:32;97457.78;;;5.87;66.14
35649;BME280;21768;48.562;13.414;2023-02-01T08:21:06;97452.78;;;5.87;66.13
35649;BME280;21768;48.562;13.414;2023-02-01T08:23:33;97453.19;;;5.92;65.79
35649;BME280;21768;48.562;13.414;2023-02-01T08:28:30;97465.94;;;5.95;65.87
35649;BME280;21768;48.562;13.414;2023-02-01T08:30:55;97457.94;;;5.99;65.38
35649;BME280;21768;48.562;13.414;2023-02-01T08:33:21;97459.44;;;5.97;65.76
35649;BME280;21768;48.562;13.414;2023-02-01T08:35:47;97447.16;;;6.00;65.73
35649;BME280;21768;48.562;13.414;2023-02-01T08:38:12;97465.97;;;6.05;65.45
35649;BME280;21768;48.562;13.414;2023-02-01T08:40:38;97453.97;;;6.11;65.48
35649;BME280;21768;48.562;13.414;2023-02-01T08:43:03;97485.41;;;6.18;65.25
35649;BME280;21768;48.562;13.414;2023-02-01T08:45:29;97462.47;;;6.23;64.68
35649;BME280;21768;48.562;13.414;2023-02-01T08:47:56;97454.44;;;6.27;64.31
35649;BME280;21768;48.562;13.414;2023-02-01T08:50:22;97450.06;;;6.35;64.21
35649;BME280;21768;48.562;13.414;2023-02-01T08:52:48;97452.97;;;6.39;64.17
35649;BME280;21768;48.562;13.414;2023-02-01T08:55:14;97447.53;;;6.45;64.39
35649;BME280;21768;48.562;13.414;2023-02-01T08:57:40;97460.94;;;6.56;64.11
35649;BME280;21768;48.562;13.414;2023-02-01T09:00:08;97466.72;;;6.65;63.75
35649;BME280;21768;48.562;13.414;2023-02-01T09:02:35;97454.31;;;6.66;63.26
35649;BME280;21768;48.562;13.414;2023-02-01T09:05:01;97468.72;;;6.59;63.85
35649;BME280;21768;48.562;13.414;2023-02-01T09:07:26;97474.50;;;6.58;63.97
35649;BME280;21768;48.562;13.414;2023-02-01T09:09:52;97477.75;;;6.57;64.22
35649;BME280;21768;48.562;13.414;2023-02-01T09:12:20;97496.78;;;6.55;63.71
35649;BME280;21768;48.562;13.414;2023-02-01T09:14:45;97501.28;;;6.48;64.35
35649;BME280;21768;48.562;13.414;2023-02-01T09:17:11;97506.56;;;6.52;64.78
35649;BME280;21768;48.562;13.414;2023-02-01T09:19:38;97509.81;;;6.51;65.18
35649;BME280;21768;48.562;13.414;2023-02-01T09:22:04;97522.84;;;6.36;65.44
35649;BME280;21768;48.562;13.414;2023-02-01T09:24:29;97507.19;;;6.19;66.21
35649;BME280;21768;48.562;13.414;2023-02-01T09:26:55;97517.41;;;6.01;66.91
35649;BME280;21768;48.562;13.414;2023-02-01T09:29:20;97517.53;;;5.93;67.41
35649;BME280;21768;48.562;13.414;2023-02-01T09:31:45;97525.81;;;5.92;67.65
35649;BME280;21768;48.562;13.414;2023-02-01T09:34:12;97531.03;;;5.95;67.97
35649;BME280;21768;48.562;13.414;2023-02-01T09:36:37;97536.31;;;5.98;68.11
35649;BME280;21768;48.562;13.414;2023-02-01T09:39:03;97539.31;;;5.94;68.29
35649;BME280;21768;48.562;13.414;2023-02-01T09:41:46;97543.78;;;5.88;68.67
35649;BME280;21768;48.562;13.414;2023-02-01T09:47:12;97564.72;;;5.69;67.88
35649;BME280;21768;48.562;13.414;2023-02-01T09:49:45;97549.63;;;5.49;68.94
35649;BME280;21768;48.562;13.414;2023-02-01T09:52:14;97562.09;;;5.39;69.24
35649;BME280;21768;48.562;13.414;2023-02-01T09:54:44;97559.94;;;5.33;69.84
35649;BME280;21768;48.562;13.414;2023-02-01T09:57:23;97553.78;;;5.30;70.28
35649;BME280;21768;48.562;13.414;2023-02-01T09:59:54;97558.25;;;5.24;70.58
35649;BME280;21768;48.562;13.414;2023-02-01T10:02:26;97551.84;;;5.17;71.05
35649;BME280;21768;48.562;13.414;2023-02-01T10:04:55;97541.84;;;5.17;71.35
35649;BME280;21768;48.562;13.414;2023-02-01T10:15:25;97522.16;;;5.30;72.02
35649;BME280;21768;48.562;13.414;2023-02-01T10:17:58;97529.84;;;5.42;71.91
35649;BME280;21768;48.562;13.414;2023-02-01T10:28:43;97534.06;;;5.72;71.82
35649;BME280;21768;48.562;13.414;2023-02-01T10:31:09;97555.72;;;5.71;71.86
35649;BME280;21768;48.562;13.414;2023-02-01T10:33:49;97547.09;;;5.68;72.11
35649;BME280;21768;48.562;13.414;2023-02-01T10:38:42;97548.47;;;5.64;72.26
35649;BME280;21768;48.562;13.414;2023-02-01T10:41:13;97549.97;;;5.72;72.39
35649;BME280;21768;48.562;13.414;2023-02-01T10:43:40;97540.00;;;5.82;72.09
35649;BME280;21768;48.562;13.414;2023-02-01T10:46:06;97540.59;;;6.19;71.88
35649;BME280;21768;48.562;13.414;2023-02-01T10:48:32;97536.53;;;6.40;70.98
35649;BME280;21768;48.562;13.414;2023-02-01T10:51:00;97533.63;;;6.35;71.05
35649;BME280;21768;48.562;13.414;2023-02-01T10:55:56;97524.22;;;6.23;71.11
35649;BME280;21768;48.562;13.414;2023-02-01T10:58:29;97517.22;;;6.19;71.21
35649;BME280;21768;48.562;13.414;2023-02-01T11:01:08;97511.56;;;6.21;71.51
35649;BME280;21768;48.562;13.414;2023-02-01T11:03:42;97514.84;;;6.51;70.96
35649;BME280;21768;48.562;13.414;2023-02-01T11:08:58;97509.59;;;6.37;70.42
35649;BME280;21768;48.562;13.414;2023-02-01T11:11:25;97505.31;;;6.26;70.79
35649;BME280;21768;48.562;13.414;2023-02-01T11:13:53;97493.88;;;6.20;70.70
35649;BME280;21768;48.562;13.414;2023-02-01T11:16:19;97492.78;;;6.16;71.04
35649;BME280;21768;48.562;13.414;2023-02-01T11:18:44;97487.78;;;6.16;70.98
35649;BME280;21768;48.562;13.414;2023-02-01T11:21:14;97489.91;;;6.11;71.13
35649;BME280;21768;48.562;13.414;2023-02-01T11:23:43;97469.59;;;6.08;71.10
35649;BME280;21768;48.562;13.414;2023-02-01T11:26:19;97476.50;;;6.11;71.35
35649;BME280;21768;48.562;13.414;2023-02-01T11:31:27;97463.34;;;6.13;71.03
35649;BME280;21768;48.562;13.414;2023-02-01T11:33:58;97468.22;;;6.12;70.72
35649;BME280;21768;48.562;13.414;2023-02-01T11:36:28;97460.72;;;6.12;70.54
35649;BME280;21768;48.562;13.414;2023-02-01T11:41:33;97448.41;;;6.45;69.59
35649;BME280;21768;48.562;13.414;2023-02-01T11:44:00;97432.59;;;6.77;67.78
35649;BME280;21768;48.562;13.414;2023-02-01T11:46:31;97447.31;;;6.94;67.90
35649;BME280;21768;48.562;13.414;2023-02-01T11:49:18;97446.44;;;7.36;67.00
35649;BME280;21768;48.562;13.414;2023-02-01T11:52:07;97441.59;;;7.49;65.82
35649;BME280;21768;48.562;13.414;2023-02-01T11:54:39;97439.47;;;7.43;64.97
35649;BME280;21768;48.562;13.414;2023-02-01T11:57:38;97445.22;;;7.21;65.72
35649;BME280;21768;48.562;13.414;2023-02-01T12:22:39;97455.28;;;6.78;66.61
35649;BME280;21768;48.562;13.414;2023-02-01T12:28:23;97469.06;;;6.73;67.00
35649;BME280;21768;48.562;13.414;2023-02-01T12:36:41;97450.06;;;7.07;64.73
35649;BME280;21768;48.562;13.414;2023-02-01T12:41:56;97476.84;;;6.87;66.19
35649;BME280;21768;48.562;13.414;2023-02-01T12:47:00;97474.03;;;7.04;66.90
35649;BME280;21768;48.562;13.414;2023-02-01T12:52:09;97487.19;;;7.11;66.29
35649;BME280;21768;48.562;13.414;2023-02-01T12:57:56;97491.34;;;7.01;66.63
35649;BME280;21768;48.562;13.414;2023-02-01T13:00:44;97482.94;;;7.00;66.05
35649;BME280;21768;48.562;13.414;2023-02-01T13:03:39;97477.91;;;7.00;65.67
35649;BME280;21768;48.562;13.414;2023-02-01T13:06:19;97482.94;;;7.00;65.96
35649;BME280;21768;48.562;13.414;2023-02-01T13:08:54;97502.75;;;7.07;66.12
35649;BME280;21768;48.562;13.414;2023-02-01T13:11:29;97497.97;;;7.10;65.71
35649;BME280;21768;48.562;13.414;2023-02-01T13:16:52;97494.34;;;7.07;64.54
35649;BME280;21768;48.562;13.414;2023-02-01T13:19:24;97496.59;;;7.04;64.91
35649;BME280;21768;48.562;13.414;2023-02-01T13:21:58;97496.97;;;6.98;64.55
35649;BME280;21768;48.562;13.414;2023-02-01T13:24:36;97493.72;;;6.99;65.41
35649;BME280;21768;48.562;13.414;2023-02-01T13:27:02;97478.41;;;7.06;64.49
35649;BME280;21768;48.562;13.414;2023-02-01T13:29:29;97475.28;;;6.99;64.12
35649;BME280;21768;48.562;13.414;2023-02-01T13:37:03;97485.63;;;6.81;64.37
35649;BME280;21768;48.562;13.414;2023-02-01T13:44:46;97494.75;;;6.71;65.38
35649;BME280;21768;48.562;13.414;2023-02-01T13:49:47;97489.75;;;6.71;64.82
35649;BME280;21768;48.562;13.414;2023-02-01T13:52:42;97483.25;;;6.63;64.86
35649;BME280;21768;48.562;13.414;2023-02-01T13:55:19;97483.13;;;6.61;65.37
35649;BME280;21768;48.562;13.414;2023-02-01T13:57:50;97483.25;;;6.63;65.47
35649;BME280;21768;48.562;13.414;2023-02-01T14:10:54;97479.25;;;6.55;65.87
35649;BME280;21768;48.562;13.414;2023-02-01T14:13:40;97482.50;;;6.54;66.24
35649;BME280;21768;48.562;13.414;2023-02-01T14:21:46;97454.94;;;6.54;66.12
35649;BME280;21768;48.562;13.414;2023-02-01T14:24:23;97463.22;;;6.53;65.35
35649;BME280;21768;48.562;13.414;2023-02-01T14:26:51;97453.69;;;6.48;65.50
35649;BME280;21768;48.562;13.414;2023-02-01T14:32:30;97454.56;;;6.49;64.77
35649;BME280;21768;48.562;13.414;2023-02-01T14:37:35;97454.94;;;6.43;64.43
35649;BME280;21768;48.562;13.414;2023-02-01T14:47:43;97469.97;;;6.43;63.94
35649;BME280;21768;48.562;13.414;2023-02-01T14:52:44;97455.31;;;6.48;63.24
35649;BME280;21768;48.562;13.414;2023-02-01T14:55:15;97468.47;;;6.45;62.41
35649;BME280;21768;48.562;13.414;2023-02-01T14:57:44;97494.28;;;6.44;63.44
35649;BME280;21768;48.562;13.414;2023-02-01T15:00:20;97495.28;;;6.46;63.86
35649;BME280;21768;48.562;13.414;2023-02-01T15:02:47;97497.28;;;6.51;64.04
35649;BME280;21768;48.562;13.414;2023-02-01T15:05:30;97493.28;;;6.53;63.62
35649;BME280;21768;48.562;13.414;2023-02-01T15:07:58;97483.50;;;6.56;63.30
35649;BME280;21768;48.562;13.414;2023-02-01T15:10:26;97487.91;;;6.58;62.20
35649;BME280;21768;48.562;13.414;2023-02-01T15:12:52;97482.75;;;6.57;62.65
35649;BME280;21768;48.562;13.414;2023-02-01T15:15:20;97473.97;;;6.52;62.47
35649;BME280;21768;48.562;13.414;2023-02-01T15:17:59;97476.09;;;6.47;62.38
35649;BME280;21768;48.562;13.414;2023-02-01T15:20:32;97465.84;;;6.44;62.00
35649;BME280;21768;48.562;13.414;2023-02-01T15:23:03;97476.50;;;6.41;62.34
35649;BME280;21768;48.562;13.414;2023-02-01T15:25:37;97470.38;;;6.38;62.67
35649;BME280;21768;48.562;13.414;2023-02-01T15:28:04;97457.09;;;6.39;62.37
35649;BME280;21768;48.562;13.414;2023-02-01T15:30:33;97466.25;;;6.38;62.34
35649;BME280;21768;48.562;13.414;2023-02-01T15:35:45;97455.22;;;6.36;61.72
35649;BME280;21768;48.562;13.414;2023-02-01T15:38:43;97449.19;;;6.34;61.79
35649;BME280;21768;48.562;13.414;2023-02-01T15:41:21;97453.06;;;6.31;62.42
35649;BME280;21768;48.562;13.414;2023-02-01T15:46:40;97461.59;;;6.33;61.91
35649;BME280;21768;48.562;13.414;2023-02-01T15:51:54;97448.19;;;6.32;61.15
35649;BME280;21768;48.562;13.414;2023-02-01T15:54:27;97453.94;;;6.31;61.12
35649;BME280;21768;48.562;13.414;2023-02-01T15:56:57;97457.22;;;6.30;61.31
35649;BME280;21768;48.562;13.414;2023-02-01T15:59:36;97453.94;;;6.31;61.41